sensor_id;sensor_type;location;lat;lon;timestamp;P1;durP1;ratioP1;P2;durP2;ratioP2
568;SDS011;269;48.884;9.192;2023-08-24T00:00:13;7.97;;;7.17;;
568;SDS011;269;48.884;9.192;2023-08-24T00:02:40;6.83;;;6.23;;
568;SDS011;269;48.884;9.192;2023-08-24T00:05:07;6.80;;;6.30;;
568;SDS011;269;48.884;9.192;2023-08-24T00:07:35;7.43;;;6.90;;
568;SDS011;269;48.884;9.192;2023-08-24T00:10:01;7.73;;;7.13;;
568;SDS011;269;48.884;9.192;2023-08-24T00:12:29;7.53;;;6.93;;
568;SDS011;269;48.884;9.192;2023-08-24T00:14:56;6.53;;;6.00;;
568;SDS011;269;48.884;9.192;2023-08-24T00:17:24;7.13;;;6.47;;
568;SDS011;269;48.884;9.192;2023-08-24T00:19:51;6.83;;;6.27;;
568;SDS011;269;48.884;9.192;2023-08-24T00:22:18;6.73;;;6.13;;
568;SDS011;269;48.884;9.192;2023-08-24T00:24:44;6.47;;;6.07;;
568;SDS011;269;48.884;9.192;2023-08-24T00:27:11;6.67;;;5.97;;
568;SDS011;269;48.884;9.192;2023-08-24T00:29:39;5.80;;;5.40;;
568;SDS011;269;48.884;9.192;2023-08-24T00:32:05;6.30;;;5.90;;
568;SDS011;269;48.884;9.192;2023-08-24T00:34:35;7.20;;;6.50;;
568;SDS011;269;48.884;9.192;2023-08-24T00:37:01;7.03;;;6.43;;
568;SDS011;269;48.884;9.192;2023-08-24T00:39:28;8.90;;;8.20;;
568;SDS011;269;48.884;9.192;2023-08-24T00:41:55;7.50;;;7.00;;
568;SDS011;269;48.884;9.192;2023-08-24T00:44:22;8.77;;;8.17;;
568;SDS011;269;48.884;9.192;2023-08-24T00:46:49;8.40;;;7.80;;
568;SDS011;269;48.884;9.192;2023-08-24T00:49:16;9.40;;;8.60;;
568;SDS011;269;48.884;9.192;2023-08-24T00:51:44;8.77;;;8.17;;
568;SDS011;269;48.884;9.192;2023-08-24T00:54:11;9.30;;;8.60;;
568;SDS011;269;48.884;9.192;2023-08-24T00:56:39;9.70;;;8.90;;
568;SDS011;269;48.884;9.192;2023-08-24T00:59:06;9.50;;;8.80;;
568;SDS011;269;48.884;9.192;2023-08-24T01:01:33;10.60;;;9.80;;
568;SDS011;269;48.884;9.192;2023-08-24T01:04:00;10.00;;;9.37;;
568;SDS011;269;48.884;9.192;2023-08-24T01:06:28;10.07;;;9.37;;
568;SDS011;269;48.884;9.192;2023-08-24T01:08:56;9.87;;;9.17;;
568;SDS011;269;48.884;9.192;2023-08-24T01:11:25;9.20;;;8.20;;
568;SDS011;269;48.884;9.192;2023-08-24T01:13:59;10.30;;;9.60;;
568;SDS011;269;48.884;9.192;2023-08-24T01:16:31;9.33;;;8.63;;
568;SDS011;269;48.884;9.192;2023-08-24T01:18:59;10.07;;;9.10;;
568;SDS011;269;48.884;9.192;2023-08-24T01:21:26;9.83;;;8.93;;
568;SDS011;269;48.884;9.192;2023-08-24T01:23:57;9.17;;;8.60;;
568;SDS011;269;48.884;9.192;2023-08-24T01:26:30;9.67;;;8.97;;
568;SDS011;269;48.884;9.192;2023-08-24T01:28:57;9.83;;;9.13;;
568;SDS011;269;48.884;9.192;2023-08-24T01:31:24;9.83;;;9.13;;
568;SDS011;269;48.884;9.192;2023-08-24T01:33:51;9.10;;;8.30;;
568;SDS011;269;48.884;9.192;2023-08-24T01:36:18;9.40;;;8.70;;
568;SDS011;269;48.884;9.192;2023-08-24T01:38:45;9.60;;;8.87;;
568;SDS011;269;48.884;9.192;2023-08-24T01:41:17;10.00;;;9.30;;
568;SDS011;269;48.884;9.192;2023-08-24T01:43:49;10.43;;;9.43;;
568;SDS011;269;48.884;9.192;2023-08-24T01:46:19;9.70;;;9.10;;
568;SDS011;269;48.884;9.192;2023-08-24T01:48:48;10.00;;;9.40;;
568;SDS011;269;48.884;9.192;2023-08-24T01:51:15;10.20;;;9.37;;
568;SDS011;269;48.884;9.192;2023-08-24T01:53:42;9.83;;;9.10;;
568;SDS011;269;48.884;9.192;2023-08-24T01:56:09;10.63;;;9.83;;
568;SDS011;269;48.884;9.192;2023-08-24T01:58:36;9.50;;;8.80;;
568;SDS011;269;48.884;9.192;2023-08-24T02:01:04;10.37;;;9.67;;
568;SDS011;269;48.884;9.192;2023-08-24T02:03:31;8.83;;;8.10;;
568;SDS011;269;48.884;9.192;2023-08-24T02:05:58;9.00;;;8.30;;
568;SDS011;269;48.884;9.192;2023-08-24T02:08:25;8.47;;;7.87;;
568;SDS011;269;48.884;9.192;2023-08-24T02:10:52;8.83;;;8.10;;
568;SDS011;269;48.884;9.192;2023-08-24T02:13:19;8.87;;;8.27;;
568;SDS011;269;48.884;9.192;2023-08-24T02:15:46;8.77;;;8.07;;
568;SDS011;269;48.884;9.192;2023-08-24T02:18:14;8.30;;;7.80;;
568;SDS011;269;48.884;9.192;2023-08-24T02:20:41;9.23;;;8.60;;
568;SDS011;269;48.884;9.192;2023-08-24T02:23:08;9.43;;;8.60;;
568;SDS011;269;48.884;9.192;2023-08-24T02:25:35;9.30;;;8.40;;
568;SDS011;269;48.884;9.192;2023-08-24T02:28:01;8.80;;;8.00;;
568;SDS011;269;48.884;9.192;2023-08-24T02:30:29;9.33;;;8.50;;
568;SDS011;269;48.884;9.192;2023-08-24T02:32:56;10.20;;;9.30;;
568;SDS011;269;48.884;9.192;2023-08-24T02:35:24;10.93;;;10.13;;
568;SDS011;269;48.884;9.192;2023-08-24T02:37:51;10.27;;;9.47;;
568;SDS011;269;48.884;9.192;2023-08-24T02:40:20;10.90;;;9.93;;
568;SDS011;269;48.884;9.192;2023-08-24T02:42:47;11.00;;;10.13;;
568;SDS011;269;48.884;9.192;2023-08-24T02:45:14;10.63;;;9.90;;
568;SDS011;269;48.884;9.192;2023-08-24T02:47:41;10.53;;;9.83;;
568;SDS011;269;48.884;9.192;2023-08-24T02:50:08;9.63;;;8.93;;
568;SDS011;269;48.884;9.192;2023-08-24T02:52:36;10.13;;;9.43;;
568;SDS011;269;48.884;9.192;2023-08-24T02:55:04;10.23;;;9.10;;
568;SDS011;269;48.884;9.192;2023-08-24T02:57:31;11.33;;;10.50;;
568;SDS011;269;48.884;9.192;2023-08-24T02:59:58;11.87;;;10.87;;
568;SDS011;269;48.884;9.192;2023-08-24T03:02:25;11.63;;;10.73;;
568;SDS011;269;48.884;9.192;2023-08-24T03:04:51;11.30;;;10.50;;
568;SDS011;269;48.884;9.192;2023-08-24T03:07:20;10.50;;;9.80;;
568;SDS011;269;48.884;9.192;2023-08-24T03:09:49;11.00;;;10.20;;
568;SDS011;269;48.884;9.192;2023-08-24T03:12:15;10.87;;;9.83;;
568;SDS011;269;48.884;9.192;2023-08-24T03:14:42;10.63;;;9.90;;
568;SDS011;269;48.884;9.192;2023-08-24T03:17:09;10.90;;;10.20;;
568;SDS011;269;48.884;9.192;2023-08-24T03:19:36;11.03;;;10.30;;
568;SDS011;269;48.884;9.192;2023-08-24T03:22:03;9.63;;;8.93;;
568;SDS011;269;48.884;9.192;2023-08-24T03:24:29;9.13;;;8.50;;
568;SDS011;269;48.884;9.192;2023-08-24T03:26:58;8.93;;;8.13;;
568;SDS011;269;48.884;9.192;2023-08-24T03:29:24;9.63;;;8.83;;
568;SDS011;269;48.884;9.192;2023-08-24T03:31:51;11.60;;;10.50;;
568;SDS011;269;48.884;9.192;2023-08-24T03:34:18;10.07;;;9.37;;
568;SDS011;269;48.884;9.192;2023-08-24T03:36:46;10.47;;;9.63;;
568;SDS011;269;48.884;9.192;2023-08-24T03:39:13;10.40;;;9.70;;
568;SDS011;269;48.884;9.192;2023-08-24T03:41:40;10.20;;;9.30;;
568;SDS011;269;48.884;9.192;2023-08-24T03:44:08;11.00;;;10.20;;
568;SDS011;269;48.884;9.192;2023-08-24T03:46:36;10.63;;;9.83;;
568;SDS011;269;48.884;9.192;2023-08-24T03:49:02;10.57;;;9.77;;
568;SDS011;269;48.884;9.192;2023-08-24T03:51:29;10.60;;;9.60;;
568;SDS011;269;48.884;9.192;2023-08-24T03:53:56;11.10;;;10.10;;
568;SDS011;269;48.884;9.192;2023-08-24T03:56:23;11.40;;;10.47;;
568;SDS011;269;48.884;9.192;2023-08-24T03:58:49;12.03;;;10.97;;
568;SDS011;269;48.884;9.192;2023-08-24T04:01:18;11.73;;;10.83;;
568;SDS011;269;48.884;9.192;2023-08-24T04:03:44;11.40;;;10.50;;
568;SDS011;269;48.884;9.192;2023-08-24T04:06:11;11.20;;;10.50;;
568;SDS011;269;48.884;9.192;2023-08-24T04:08:38;12.63;;;11.70;;
568;SDS011;269;48.884;9.192;2023-08-24T04:11:05;11.23;;;10.43;;
568;SDS011;269;48.884;9.192;2023-08-24T04:13:31;11.57;;;10.27;;
568;SDS011;269;48.884;9.192;2023-08-24T04:15:58;11.37;;;10.60;;
568;SDS011;269;48.884;9.192;2023-08-24T04:18:26;11.37;;;10.57;;
568;SDS011;269;48.884;9.192;2023-08-24T04:20:53;11.57;;;10.77;;
568;SDS011;269;48.884;9.192;2023-08-24T04:23:23;11.40;;;10.50;;
568;SDS011;269;48.884;9.192;2023-08-24T04:25:50;11.07;;;10.27;;
568;SDS011;269;48.884;9.192;2023-08-24T04:28:17;11.27;;;10.30;;
568;SDS011;269;48.884;9.192;2023-08-24T04:30:48;11.33;;;10.43;;
568;SDS011;269;48.884;9.192;2023-08-24T04:33:16;10.27;;;9.40;;
568;SDS011;269;48.884;9.192;2023-08-24T04:35:46;10.50;;;9.80;;
568;SDS011;269;48.884;9.192;2023-08-24T04:38:13;9.97;;;9.17;;
568;SDS011;269;48.884;9.192;2023-08-24T04:40:46;11.43;;;10.53;;
568;SDS011;269;48.884;9.192;2023-08-24T04:43:14;11.50;;;10.70;;
568;SDS011;269;48.884;9.192;2023-08-24T04:45:41;10.93;;;10.13;;
568;SDS011;269;48.884;9.192;2023-08-24T04:48:08;11.60;;;10.70;;
568;SDS011;269;48.884;9.192;2023-08-24T04:50:35;11.67;;;10.87;;
568;SDS011;269;48.884;9.192;2023-08-24T04:53:03;11.10;;;10.40;;
568;SDS011;269;48.884;9.192;2023-08-24T04:55:29;10.30;;;9.60;;
568;SDS011;269;48.884;9.192;2023-08-24T04:57:57;10.70;;;9.80;;
568;SDS011;269;48.884;9.192;2023-08-24T05:00:23;10.87;;;10.07;;
568;SDS011;269;48.884;9.192;2023-08-24T05:02:51;11.30;;;10.47;;
568;SDS011;269;48.884;9.192;2023-08-24T05:05:17;11.23;;;10.33;;
568;SDS011;269;48.884;9.192;2023-08-24T05:07:45;11.20;;;10.30;;
568;SDS011;269;48.884;9.192;2023-08-24T05:10:13;10.00;;;9.30;;
568;SDS011;269;48.884;9.192;2023-08-24T05:12:40;10.53;;;9.83;;
568;SDS011;269;48.884;9.192;2023-08-24T05:15:07;12.77;;;11.57;;
568;SDS011;269;48.884;9.192;2023-08-24T05:17:34;11.70;;;10.80;;
568;SDS011;269;48.884;9.192;2023-08-24T05:20:01;11.83;;;10.93;;
568;SDS011;269;48.884;9.192;2023-08-24T05:22:29;11.13;;;10.30;;
568;SDS011;269;48.884;9.192;2023-08-24T05:24:56;12.03;;;11.17;;
568;SDS011;269;48.884;9.192;2023-08-24T05:27:24;12.03;;;11.23;;
568;SDS011;269;48.884;9.192;2023-08-24T05:29:51;12.17;;;11.37;;
568;SDS011;269;48.884;9.192;2023-08-24T05:32:18;12.33;;;11.33;;
568;SDS011;269;48.884;9.192;2023-08-24T05:34:45;12.70;;;11.80;;
568;SDS011;269;48.884;9.192;2023-08-24T05:37:12;11.87;;;10.93;;
568;SDS011;269;48.884;9.192;2023-08-24T05:39:38;11.80;;;10.90;;
568;SDS011;269;48.884;9.192;2023-08-24T05:42:06;13.13;;;11.80;;
568;SDS011;269;48.884;9.192;2023-08-24T05:44:34;11.17;;;10.30;;
568;SDS011;269;48.884;9.192;2023-08-24T05:47:01;10.80;;;10.00;;
568;SDS011;269;48.884;9.192;2023-08-24T05:49:28;11.70;;;10.80;;
568;SDS011;269;48.884;9.192;2023-08-24T05:51:55;11.40;;;10.53;;
568;SDS011;269;48.884;9.192;2023-08-24T05:54:21;12.47;;;11.37;;
568;SDS011;269;48.884;9.192;2023-08-24T05:56:48;11.50;;;10.50;;
568;SDS011;269;48.884;9.192;2023-08-24T05:59:15;11.33;;;10.60;;
568;SDS011;269;48.884;9.192;2023-08-24T06:01:43;10.73;;;10.00;;
568;SDS011;269;48.884;9.192;2023-08-24T06:04:11;11.37;;;9.90;;
568;SDS011;269;48.884;9.192;2023-08-24T06:06:38;10.50;;;9.70;;
568;SDS011;269;48.884;9.192;2023-08-24T06:09:04;11.10;;;10.17;;
568;SDS011;269;48.884;9.192;2023-08-24T06:11:32;10.67;;;9.67;;
568;SDS011;269;48.884;9.192;2023-08-24T06:13:58;10.40;;;9.40;;
568;SDS011;269;48.884;9.192;2023-08-24T06:16:25;9.57;;;8.77;;
568;SDS011;269;48.884;9.192;2023-08-24T06:18:54;10.17;;;9.47;;
568;SDS011;269;48.884;9.192;2023-08-24T06:21:20;9.40;;;8.70;;
568;SDS011;269;48.884;9.192;2023-08-24T06:23:47;9.20;;;8.30;;
568;SDS011;269;48.884;9.192;2023-08-24T06:26:14;7.20;;;6.60;;
568;SDS011;269;48.884;9.192;2023-08-24T06:28:41;8.27;;;7.57;;
568;SDS011;269;48.884;9.192;2023-08-24T06:31:07;7.47;;;6.80;;
568;SDS011;269;48.884;9.192;2023-08-24T06:33:34;7.17;;;6.50;;
568;SDS011;269;48.884;9.192;2023-08-24T06:36:03;8.30;;;6.50;;
568;SDS011;269;48.884;9.192;2023-08-24T06:38:31;6.83;;;6.33;;
568;SDS011;269;48.884;9.192;2023-08-24T06:40:58;6.37;;;5.90;;
568;SDS011;269;48.884;9.192;2023-08-24T06:43:25;6.20;;;5.60;;
568;SDS011;269;48.884;9.192;2023-08-24T06:45:53;7.50;;;7.00;;
568;SDS011;269;48.884;9.192;2023-08-24T06:48:21;6.10;;;5.60;;
568;SDS011;269;48.884;9.192;2023-08-24T06:50:47;6.43;;;5.93;;
568;SDS011;269;48.884;9.192;2023-08-24T06:53:16;6.13;;;5.63;;
568;SDS011;269;48.884;9.192;2023-08-24T06:55:42;6.77;;;6.07;;
568;SDS011;269;48.884;9.192;2023-08-24T06:58:09;6.00;;;5.50;;
568;SDS011;269;48.884;9.192;2023-08-24T07:00:36;6.93;;;6.23;;
568;SDS011;269;48.884;9.192;2023-08-24T07:03:03;7.27;;;6.70;;
568;SDS011;269;48.884;9.192;2023-08-24T07:05:30;6.80;;;6.20;;
568;SDS011;269;48.884;9.192;2023-08-24T07:07:59;6.83;;;6.23;;
568;SDS011;269;48.884;9.192;2023-08-24T07:10:27;7.80;;;7.00;;
568;SDS011;269;48.884;9.192;2023-08-24T07:12:54;7.03;;;6.30;;
568;SDS011;269;48.884;9.192;2023-08-24T07:15:21;7.70;;;7.00;;
568;SDS011;269;48.884;9.192;2023-08-24T07:17:48;6.20;;;5.80;;
568;SDS011;269;48.884;9.192;2023-08-24T07:20:14;7.83;;;7.23;;
568;SDS011;269;48.884;9.192;2023-08-24T07:22:41;6.27;;;5.53;;
568;SDS011;269;48.884;9.192;2023-08-24T07:25:08;5.60;;;5.13;;
568;SDS011;269;48.884;9.192;2023-08-24T07:27:38;6.20;;;5.23;;
568;SDS011;269;48.884;9.192;2023-08-24T07:30:05;5.50;;;5.10;;
568;SDS011;269;48.884;9.192;2023-08-24T07:32:34;5.43;;;5.03;;
568;SDS011;269;48.884;9.192;2023-08-24T07:35:01;6.13;;;4.67;;
568;SDS011;269;48.884;9.192;2023-08-24T07:37:28;5.60;;;4.70;;
568;SDS011;269;48.884;9.192;2023-08-24T07:39:55;6.33;;;5.10;;
568;SDS011;269;48.884;9.192;2023-08-24T07:42:22;8.37;;;5.17;;
568;SDS011;269;48.884;9.192;2023-08-24T07:44:50;7.10;;;5.60;;
568;SDS011;269;48.884;9.192;2023-08-24T07:47:17;5.90;;;5.30;;
568;SDS011;269;48.884;9.192;2023-08-24T07:49:44;5.70;;;5.20;;
568;SDS011;269;48.884;9.192;2023-08-24T07:52:11;5.20;;;4.80;;
568;SDS011;269;48.884;9.192;2023-08-24T07:54:38;6.20;;;4.93;;
568;SDS011;269;48.884;9.192;2023-08-24T07:57:05;5.03;;;4.63;;
568;SDS011;269;48.884;9.192;2023-08-24T07:59:32;4.40;;;4.10;;
568;SDS011;269;48.884;9.192;2023-08-24T08:02:01;6.43;;;4.67;;
568;SDS011;269;48.884;9.192;2023-08-24T08:04:27;5.87;;;4.60;;
568;SDS011;269;48.884;9.192;2023-08-24T08:06:54;5.20;;;4.70;;
568;SDS011;269;48.884;9.192;2023-08-24T08:09:22;5.17;;;4.30;;
568;SDS011;269;48.884;9.192;2023-08-24T08:11:49;4.53;;;4.13;;
568;SDS011;269;48.884;9.192;2023-08-24T08:14:15;4.73;;;4.27;;
568;SDS011;269;48.884;9.192;2023-08-24T08:16:42;4.40;;;4.10;;
568;SDS011;269;48.884;9.192;2023-08-24T08:19:11;6.70;;;4.37;;
568;SDS011;269;48.884;9.192;2023-08-24T08:21:37;4.07;;;3.77;;
568;SDS011;269;48.884;9.192;2023-08-24T08:24:04;4.50;;;4.20;;
568;SDS011;269;48.884;9.192;2023-08-24T08:26:31;6.63;;;3.87;;
568;SDS011;269;48.884;9.192;2023-08-24T08:28:58;7.47;;;4.17;;
568;SDS011;269;48.884;9.192;2023-08-24T08:31:25;4.73;;;4.37;;
568;SDS011;269;48.884;9.192;2023-08-24T08:33:52;6.63;;;4.20;;
568;SDS011;269;48.884;9.192;2023-08-24T08:36:20;4.77;;;3.63;;
568;SDS011;269;48.884;9.192;2023-08-24T08:38:47;6.00;;;4.33;;
568;SDS011;269;48.884;9.192;2023-08-24T08:41:14;5.50;;;4.20;;
568;SDS011;269;48.884;9.192;2023-08-24T08:43:41;3.50;;;3.30;;
568;SDS011;269;48.884;9.192;2023-08-24T08:46:08;4.40;;;4.10;;
568;SDS011;269;48.884;9.192;2023-08-24T08:48:37;5.57;;;3.93;;
568;SDS011;269;48.884;9.192;2023-08-24T08:51:04;4.60;;;4.20;;
568;SDS011;269;48.884;9.192;2023-08-24T08:53:33;4.97;;;4.17;;
568;SDS011;269;48.884;9.192;2023-08-24T08:56:00;5.20;;;3.70;;
568;SDS011;269;48.884;9.192;2023-08-24T08:58:29;4.23;;;3.87;;
568;SDS011;269;48.884;9.192;2023-08-24T09:00:56;4.40;;;4.10;;
568;SDS011;269;48.884;9.192;2023-08-24T09:03:25;4.43;;;4.03;;
568;SDS011;269;48.884;9.192;2023-08-24T09:05:53;4.27;;;3.80;;
568;SDS011;269;48.884;9.192;2023-08-24T09:08:19;4.90;;;4.30;;
568;SDS011;269;48.884;9.192;2023-08-24T09:10:48;4.30;;;3.90;;
568;SDS011;269;48.884;9.192;2023-08-24T09:13:15;4.23;;;3.83;;
568;SDS011;269;48.884;9.192;2023-08-24T09:15:42;5.67;;;5.07;;
568;SDS011;269;48.884;9.192;2023-08-24T09:18:09;6.17;;;4.37;;
568;SDS011;269;48.884;9.192;2023-08-24T09:20:36;4.27;;;3.97;;
568;SDS011;269;48.884;9.192;2023-08-24T09:23:03;4.40;;;4.00;;
568;SDS011;269;48.884;9.192;2023-08-24T09:25:30;4.60;;;4.10;;
568;SDS011;269;48.884;9.192;2023-08-24T09:27:58;4.93;;;4.50;;
568;SDS011;269;48.884;9.192;2023-08-24T09:30:31;4.77;;;4.30;;
568;SDS011;269;48.884;9.192;2023-08-24T09:33:02;4.70;;;4.30;;
568;SDS011;269;48.884;9.192;2023-08-24T09:35:33;6.10;;;4.13;;
568;SDS011;269;48.884;9.192;2023-08-24T09:38:14;4.40;;;4.00;;
568;SDS011;269;48.884;9.192;2023-08-24T09:40:44;4.37;;;3.93;;
568;SDS011;269;48.884;9.192;2023-08-24T09:43:14;5.80;;;4.00;;
568;SDS011;269;48.884;9.192;2023-08-24T09:45:47;4.73;;;4.20;;
568;SDS011;269;48.884;9.192;2023-08-24T09:48:14;6.10;;;4.73;;
568;SDS011;269;48.884;9.192;2023-08-24T09:50:42;4.20;;;3.80;;
568;SDS011;269;48.884;9.192;2023-08-24T09:53:09;6.47;;;4.70;;
568;SDS011;269;48.884;9.192;2023-08-24T09:55:42;6.53;;;4.40;;
568;SDS011;269;48.884;9.192;2023-08-24T09:58:11;4.77;;;4.30;;
568;SDS011;269;48.884;9.192;2023-08-24T10:00:39;4.77;;;4.37;;
568;SDS011;269;48.884;9.192;2023-08-24T10:03:05;4.97;;;4.57;;
568;SDS011;269;48.884;9.192;2023-08-24T10:05:33;4.83;;;4.43;;
568;SDS011;269;48.884;9.192;2023-08-24T10:08:00;7.00;;;4.37;;
568;SDS011;269;48.884;9.192;2023-08-24T10:10:28;5.50;;;4.93;;
568;SDS011;269;48.884;9.192;2023-08-24T10:12:56;6.50;;;5.20;;
568;SDS011;269;48.884;9.192;2023-08-24T10:15:24;5.27;;;4.77;;
568;SDS011;269;48.884;9.192;2023-08-24T10:17:54;6.27;;;5.03;;
568;SDS011;269;48.884;9.192;2023-08-24T10:20:22;5.53;;;4.87;;
568;SDS011;269;48.884;9.192;2023-08-24T10:22:49;4.90;;;4.50;;
568;SDS011;269;48.884;9.192;2023-08-24T10:25:17;5.27;;;4.83;;
568;SDS011;269;48.884;9.192;2023-08-24T10:27:45;4.83;;;4.40;;
568;SDS011;269;48.884;9.192;2023-08-24T10:30:13;5.17;;;4.60;;
568;SDS011;269;48.884;9.192;2023-08-24T10:32:41;5.77;;;4.47;;
568;SDS011;269;48.884;9.192;2023-08-24T10:35:09;5.13;;;4.73;;
568;SDS011;269;48.884;9.192;2023-08-24T10:37:36;6.77;;;5.53;;
568;SDS011;269;48.884;9.192;2023-08-24T10:40:03;5.77;;;4.73;;
568;SDS011;269;48.884;9.192;2023-08-24T10:42:42;5.93;;;5.40;;
568;SDS011;269;48.884;9.192;2023-08-24T10:45:11;5.20;;;4.90;;
568;SDS011;269;48.884;9.192;2023-08-24T10:47:43;6.30;;;5.73;;
568;SDS011;269;48.884;9.192;2023-08-24T10:50:13;5.80;;;5.40;;
568;SDS011;269;48.884;9.192;2023-08-24T10:52:42;5.30;;;4.80;;
568;SDS011;269;48.884;9.192;2023-08-24T10:55:21;6.50;;;5.00;;
568;SDS011;269;48.884;9.192;2023-08-24T10:57:55;7.50;;;5.50;;
568;SDS011;269;48.884;9.192;2023-08-24T11:00:25;5.70;;;5.30;;
568;SDS011;269;48.884;9.192;2023-08-24T11:02:53;6.40;;;5.90;;
568;SDS011;269;48.884;9.192;2023-08-24T11:05:22;5.23;;;4.73;;
568;SDS011;269;48.884;9.192;2023-08-24T11:07:50;5.67;;;5.27;;
568;SDS011;269;48.884;9.192;2023-08-24T11:10:19;6.00;;;5.50;;
568;SDS011;269;48.884;9.192;2023-08-24T11:15:45;7.90;;;6.03;;
568;SDS011;269;48.884;9.192;2023-08-24T11:21:00;5.80;;;5.20;;
568;SDS011;269;48.884;9.192;2023-08-24T11:23:29;6.43;;;5.90;;
568;SDS011;269;48.884;9.192;2023-08-24T11:25:57;6.00;;;5.60;;
568;SDS011;269;48.884;9.192;2023-08-24T11:28:25;6.40;;;5.70;;
568;SDS011;269;48.884;9.192;2023-08-24T11:30:52;5.90;;;5.47;;
568;SDS011;269;48.884;9.192;2023-08-24T11:33:29;6.17;;;5.67;;
568;SDS011;269;48.884;9.192;2023-08-24T11:35:57;6.93;;;6.23;;
568;SDS011;269;48.884;9.192;2023-08-24T11:38:26;6.47;;;5.90;;
568;SDS011;269;48.884;9.192;2023-08-24T11:41:05;6.20;;;5.80;;
568;SDS011;269;48.884;9.192;2023-08-24T11:43:36;6.50;;;5.90;;
568;SDS011;269;48.884;9.192;2023-08-24T11:46:03;6.33;;;5.87;;
568;SDS011;269;48.884;9.192;2023-08-24T11:48:31;6.33;;;5.83;;
568;SDS011;269;48.884;9.192;2023-08-24T11:50:58;6.83;;;5.90;;
568;SDS011;269;48.884;9.192;2023-08-24T11:53:27;6.17;;;5.57;;
568;SDS011;269;48.884;9.192;2023-08-24T11:55:57;6.27;;;5.63;;
568;SDS011;269;48.884;9.192;2023-08-24T11:58:23;7.07;;;6.30;;
568;SDS011;269;48.884;9.192;2023-08-24T12:00:50;7.00;;;6.40;;
568;SDS011;269;48.884;9.192;2023-08-24T12:03:17;6.00;;;5.50;;
568;SDS011;269;48.884;9.192;2023-08-24T12:05:44;7.50;;;6.50;;
568;SDS011;269;48.884;9.192;2023-08-24T12:08:11;6.10;;;5.70;;
568;SDS011;269;48.884;9.192;2023-08-24T12:10:42;7.03;;;6.17;;
568;SDS011;269;48.884;9.192;2023-08-24T12:13:11;6.50;;;6.00;;
568;SDS011;269;48.884;9.192;2023-08-24T12:15:40;6.57;;;6.07;;
568;SDS011;269;48.884;9.192;2023-08-24T15:04:36;16.15;;;6.07;;
568;SDS011;269;48.884;9.192;2023-08-24T15:07:03;12.68;;;6.60;;
568;SDS011;269;48.884;9.192;2023-08-24T15:09:30;9.50;;;7.00;;
568;SDS011;269;48.884;9.192;2023-08-24T15:11:57;7.95;;;6.13;;
568;SDS011;269;48.884;9.192;2023-08-24T15:14:27;8.23;;;7.40;;
568;SDS011;269;48.884;9.192;2023-08-24T15:16:54;11.10;;;10.07;;
568;SDS011;269;48.884;9.192;2023-08-24T15:19:21;11.88;;;10.98;;
568;SDS011;269;48.884;9.192;2023-08-24T15:21:49;9.97;;;9.17;;
568;SDS011;269;48.884;9.192;2023-08-24T15:24:16;7.20;;;6.57;;
568;SDS011;269;48.884;9.192;2023-08-24T15:26:43;9.00;;;6.80;;
568;SDS011;269;48.884;9.192;2023-08-24T15:29:11;6.80;;;6.03;;
568;SDS011;269;48.884;9.192;2023-08-24T15:31:40;5.50;;;5.00;;
568;SDS011;269;48.884;9.192;2023-08-24T15:34:07;4.73;;;4.27;;
568;SDS011;269;48.884;9.192;2023-08-24T15:36:34;5.90;;;4.67;;
568;SDS011;269;48.884;9.192;2023-08-24T15:39:02;4.70;;;4.30;;
568;SDS011;269;48.884;9.192;2023-08-24T15:41:29;6.43;;;5.50;;
568;SDS011;269;48.884;9.192;2023-08-24T15:43:56;5.87;;;4.37;;
568;SDS011;269;48.884;9.192;2023-08-24T15:46:23;4.47;;;3.77;;
568;SDS011;269;48.884;9.192;2023-08-24T15:48:50;4.53;;;3.97;;
568;SDS011;269;48.884;9.192;2023-08-24T15:51:21;3.53;;;3.27;;
568;SDS011;269;48.884;9.192;2023-08-24T15:53:48;4.20;;;3.60;;
568;SDS011;269;48.884;9.192;2023-08-24T15:56:16;6.50;;;3.80;;
568;SDS011;269;48.884;9.192;2023-08-24T15:58:43;5.67;;;4.40;;
568;SDS011;269;48.884;9.192;2023-08-24T16:01:11;4.60;;;3.80;;
568;SDS011;269;48.884;9.192;2023-08-24T16:03:37;6.23;;;4.03;;
568;SDS011;269;48.884;9.192;2023-08-24T16:06:05;3.93;;;3.50;;
568;SDS011;269;48.884;9.192;2023-08-24T16:08:32;6.33;;;3.67;;
568;SDS011;269;48.884;9.192;2023-08-24T16:10:59;5.40;;;3.90;;
568;SDS011;269;48.884;9.192;2023-08-24T16:13:27;5.90;;;4.77;;
568;SDS011;269;48.884;9.192;2023-08-24T16:15:54;5.63;;;5.13;;
568;SDS011;269;48.884;9.192;2023-08-24T16:18:22;8.10;;;7.30;;
568;SDS011;269;48.884;9.192;2023-08-24T16:20:50;7.95;;;6.50;;
568;SDS011;269;48.884;9.192;2023-08-24T16:23:17;7.07;;;6.37;;
568;SDS011;269;48.884;9.192;2023-08-24T16:25:44;7.50;;;6.40;;
568;SDS011;269;48.884;9.192;2023-08-24T16:28:11;6.23;;;5.63;;
568;SDS011;269;48.884;9.192;2023-08-24T16:30:39;12.00;;;7.00;;
568;SDS011;269;48.884;9.192;2023-08-24T16:33:06;7.20;;;6.50;;
568;SDS011;269;48.884;9.192;2023-08-24T16:35:33;6.80;;;6.27;;
568;SDS011;269;48.884;9.192;2023-08-24T16:38:00;5.47;;;5.07;;
568;SDS011;269;48.884;9.192;2023-08-24T16:40:27;5.63;;;5.13;;
568;SDS011;269;48.884;9.192;2023-08-24T16:42:54;7.00;;;6.33;;
568;SDS011;269;48.884;9.192;2023-08-24T16:45:21;6.80;;;6.30;;
568;SDS011;269;48.884;9.192;2023-08-24T16:47:50;8.33;;;6.33;;
568;SDS011;269;48.884;9.192;2023-08-24T16:50:18;7.37;;;6.90;;
568;SDS011;269;48.884;9.192;2023-08-24T16:52:45;6.70;;;6.10;;
568;SDS011;269;48.884;9.192;2023-08-24T16:55:12;7.10;;;6.00;;
568;SDS011;269;48.884;9.192;2023-08-24T16:57:39;7.87;;;7.20;;
568;SDS011;269;48.884;9.192;2023-08-24T17:00:06;7.63;;;6.67;;
568;SDS011;269;48.884;9.192;2023-08-24T17:02:34;7.50;;;6.80;;
568;SDS011;269;48.884;9.192;2023-08-24T17:05:02;8.83;;;8.03;;
568;SDS011;269;48.884;9.192;2023-08-24T17:07:29;7.73;;;7.13;;
568;SDS011;269;48.884;9.192;2023-08-24T17:09:56;8.23;;;7.17;;
568;SDS011;269;48.884;9.192;2023-08-24T17:12:25;6.97;;;6.37;;
568;SDS011;269;48.884;9.192;2023-08-24T17:14:51;8.10;;;7.03;;
568;SDS011;269;48.884;9.192;2023-08-24T17:17:18;7.00;;;6.33;;
568;SDS011;269;48.884;9.192;2023-08-24T17:19:45;7.83;;;6.93;;
568;SDS011;269;48.884;9.192;2023-08-24T17:22:13;7.23;;;6.53;;
568;SDS011;269;48.884;9.192;2023-08-24T17:24:40;7.30;;;6.70;;
568;SDS011;269;48.884;9.192;2023-08-24T17:27:07;7.27;;;6.67;;
568;SDS011;269;48.884;9.192;2023-08-24T17:29:34;6.10;;;5.60;;
568;SDS011;269;48.884;9.192;2023-08-24T17:32:01;5.50;;;5.10;;
568;SDS011;269;48.884;9.192;2023-08-24T17:34:28;6.10;;;5.60;;
568;SDS011;269;48.884;9.192;2023-08-24T17:36:55;5.00;;;4.50;;
568;SDS011;269;48.884;9.192;2023-08-24T17:39:23;5.50;;;5.00;;
568;SDS011;269;48.884;9.192;2023-08-24T17:41:50;6.70;;;5.57;;
568;SDS011;269;48.884;9.192;2023-08-24T17:44:16;6.23;;;5.60;;
568;SDS011;269;48.884;9.192;2023-08-24T17:46:43;8.97;;;5.70;;
568;SDS011;269;48.884;9.192;2023-08-24T17:49:10;5.47;;;4.97;;
568;SDS011;269;48.884;9.192;2023-08-24T17:51:37;5.43;;;5.03;;
568;SDS011;269;48.884;9.192;2023-08-24T17:54:04;6.67;;;6.03;;
568;SDS011;269;48.884;9.192;2023-08-24T17:56:33;3.60;;;3.30;;
568;SDS011;269;48.884;9.192;2023-08-24T17:59:00;3.93;;;3.50;;
568;SDS011;269;48.884;9.192;2023-08-24T18:01:27;6.90;;;4.33;;
568;SDS011;269;48.884;9.192;2023-08-24T18:03:54;3.97;;;3.40;;
568;SDS011;269;48.884;9.192;2023-08-24T18:06:21;7.33;;;4.60;;
568;SDS011;269;48.884;9.192;2023-08-24T18:08:47;4.87;;;4.30;;
568;SDS011;269;48.884;9.192;2023-08-24T18:11:14;5.30;;;4.90;;
568;SDS011;269;48.884;9.192;2023-08-24T18:13:42;6.70;;;6.07;;
568;SDS011;269;48.884;9.192;2023-08-24T18:16:12;7.00;;;6.40;;
568;SDS011;269;48.884;9.192;2023-08-24T18:18:39;7.90;;;7.13;;
568;SDS011;269;48.884;9.192;2023-08-24T18:21:07;7.37;;;6.67;;
568;SDS011;269;48.884;9.192;2023-08-24T18:23:34;8.40;;;7.60;;
568;SDS011;269;48.884;9.192;2023-08-24T18:26:01;7.07;;;6.47;;
568;SDS011;269;48.884;9.192;2023-08-24T18:28:29;8.13;;;7.33;;
568;SDS011;269;48.884;9.192;2023-08-24T18:30:57;9.00;;;8.23;;
568;SDS011;269;48.884;9.192;2023-08-24T18:33:24;9.77;;;8.97;;